createdAt,value
2018-12-25T00:00:00.451Z,91.00
2018-12-25T00:02:29.105Z,91.08
2018-12-25T00:04:57.659Z,90.79
2018-12-25T00:07:26.242Z,90.92
2018-12-25T00:09:54.798Z,90.89
2018-12-25T00:12:23.698Z,90.67
2018-12-25T00:14:52.269Z,90.82
2018-12-25T00:17:20.836Z,91.73
2018-12-25T00:20:03.019Z,90.69
2018-12-25T00:22:31.595Z,90.69
2018-12-25T00:25:00.192Z,90.73
2018-12-25T00:27:28.812Z,90.84
2018-12-25T00:29:57.395Z,90.92
2018-12-25T00:32:25.967Z,91.01
2018-12-25T00:34:54.538Z,90.88
2018-12-25T00:37:23.102Z,91.02
2018-12-25T00:39:51.687Z,91.08
2018-12-25T00:42:20.324Z,91.29
2018-12-25T00:44:48.910Z,91.28
2018-12-25T00:47:17.482Z,91.17
2018-12-25T00:49:46.082Z,91.26
2018-12-25T00:52:14.636Z,91.29
2018-12-25T00:54:43.232Z,91.41
2018-12-25T00:57:11.793Z,91.77
2018-12-25T00:59:40.378Z,91.91
2018-12-25T01:02:08.940Z,91.64
2018-12-25T01:04:37.529Z,91.72
2018-12-25T01:07:06.158Z,92.17
2018-12-25T01:09:34.751Z,92.06
2018-12-25T01:12:03.299Z,92.33
2018-12-25T01:14:31.888Z,92.61
2018-12-25T01:17:00.451Z,92.59
2018-12-25T01:19:29.029Z,92.69
2018-12-25T01:21:57.592Z,93.42
2018-12-25T01:24:26.189Z,93.92
2018-12-25T01:26:54.750Z,94.11
2018-12-25T01:29:23.353Z,94.24
2018-12-25T01:31:51.927Z,94.33
2018-12-25T01:34:20.502Z,94.48
2018-12-25T01:36:49.068Z,94.12
2018-12-25T01:39:17.654Z,93.73
2018-12-25T01:41:46.224Z,94.15
2018-12-25T01:44:14.807Z,94.73
2018-12-25T01:46:43.372Z,94.50
2018-12-25T01:49:11.990Z,94.96
2018-12-25T01:51:40.557Z,94.65
2018-12-25T01:54:09.150Z,94.86
2018-12-25T01:56:37.710Z,94.95
2018-12-25T01:59:06.294Z,94.95
2018-12-25T02:01:34.876Z,94.71
2018-12-25T02:04:03.475Z,94.80
2018-12-25T02:06:32.045Z,95.17
2018-12-25T02:09:00.629Z,95.06
2018-12-25T02:11:29.213Z,95.54
2018-12-25T02:14:00.300Z,95.58
2018-12-25T02:16:28.867Z,95.59
2018-12-25T02:18:57.454Z,95.35
2018-12-25T02:24:34.095Z,95.53
2018-12-25T02:27:02.656Z,95.11
2018-12-25T02:29:31.237Z,95.35
2018-12-25T02:31:59.799Z,95.59
2018-12-25T02:34:28.378Z,96.57
2018-12-25T02:36:56.967Z,96.99
2018-12-25T02:39:25.546Z,96.59
2018-12-25T02:41:54.102Z,96.01
2018-12-25T02:44:22.708Z,95.90
2018-12-25T02:46:51.273Z,96.56
2018-12-25T02:49:19.872Z,97.13
2018-12-25T02:51:48.428Z,96.68
2018-12-25T02:54:17.015Z,96.08
2018-12-25T02:56:45.642Z,96.69
2018-12-25T02:59:14.233Z,96.20
2018-12-25T03:01:42.788Z,96.31
2018-12-25T03:07:05.546Z,96.37
2018-12-25T03:09:53.247Z,96.59
2018-12-25T03:12:21.814Z,97.17
2018-12-25T03:14:50.400Z,97.16
2018-12-25T03:17:18.948Z,97.31
2018-12-25T03:19:47.583Z,96.78
2018-12-25T03:22:16.150Z,97.10
2018-12-25T03:25:03.855Z,97.40
2018-12-25T03:27:32.421Z,97.27
2018-12-25T03:30:01.021Z,97.01
2018-12-25T03:32:29.586Z,96.95
2018-12-25T03:34:58.193Z,97.26
2018-12-25T03:37:26.747Z,97.37
2018-12-25T03:39:55.318Z,97.40
2018-12-25T03:42:23.919Z,97.37
2018-12-25T03:44:52.486Z,97.23
2018-12-25T03:47:21.070Z,97.47
2018-12-25T03:49:49.643Z,97.50
2018-12-25T03:52:18.240Z,97.07
2018-12-25T03:54:46.887Z,97.21
2018-12-25T03:57:15.478Z,96.95
2018-12-25T04:00:03.151Z,97.20
2018-12-25T04:02:31.735Z,97.35
2018-12-25T04:05:00.322Z,97.35
2018-12-25T04:07:48.009Z,97.05
2018-12-25T04:10:16.565Z,96.88
2018-12-25T04:12:45.175Z,96.71
2018-12-25T04:15:13.729Z,96.56
2018-12-25T04:17:42.299Z,96.55
2018-12-25T04:20:19.513Z,96.52
2018-12-25T04:22:41.181Z,96.56
2018-12-25T04:25:09.749Z,96.89
2018-12-25T04:27:38.331Z,96.84
2018-12-25T04:30:27.712Z,96.67
2018-12-25T04:32:56.288Z,96.72
2018-12-25T04:35:24.854Z,96.25
2018-12-25T04:37:53.495Z,96.39
2018-12-25T04:40:22.071Z,96.07
2018-12-25T04:42:50.666Z,96.10
2018-12-25T04:45:19.225Z,95.98
2018-12-25T04:47:47.807Z,95.84
2018-12-25T04:50:16.361Z,96.00
2018-12-25T04:52:44.945Z,95.77
2018-12-25T04:55:13.498Z,95.85
2018-12-25T04:57:42.103Z,95.88
2018-12-25T05:00:10.663Z,95.59
2018-12-25T05:02:39.249Z,95.47
2018-12-25T05:05:07.818Z,95.40
2018-12-25T05:07:36.463Z,95.62
2018-12-25T05:10:25.873Z,95.47
2018-12-25T05:12:54.460Z,95.15
2018-12-25T05:15:23.032Z,95.17
2018-12-25T05:17:51.625Z,95.13
2018-12-25T05:20:20.209Z,95.05
2018-12-25T05:23:08.145Z,95.03
2018-12-25T05:28:24.155Z,94.83
2018-12-25T05:30:52.790Z,94.87
2018-12-25T05:33:21.373Z,94.68
2018-12-25T05:35:49.955Z,94.73
2018-12-25T05:38:18.539Z,94.67
2018-12-25T05:40:47.104Z,94.52
2018-12-25T05:43:15.702Z,94.50
2018-12-25T05:45:44.257Z,94.53
2018-12-25T05:48:12.849Z,94.41
2018-12-25T05:50:46.575Z,94.26
2018-12-25T05:53:11.718Z,94.12
2018-12-25T05:55:40.268Z,94.07
2018-12-25T05:58:08.850Z,93.97
2018-12-25T06:00:37.403Z,93.81
2018-12-25T06:03:05.972Z,93.75
2018-12-25T06:05:34.560Z,93.45
2018-12-25T06:08:03.117Z,93.24
2018-12-25T06:10:31.706Z,93.21
2018-12-25T06:13:00.250Z,93.42
2018-12-25T06:15:28.837Z,93.19
2018-12-25T06:17:57.392Z,93.18
2018-12-25T06:20:25.986Z,93.03
2018-12-25T06:22:54.549Z,93.00
2018-12-25T06:25:23.139Z,92.81
2018-12-25T06:27:51.691Z,92.70
2018-12-25T06:30:20.375Z,92.38
2018-12-25T06:32:48.929Z,92.40
2018-12-25T06:35:17.506Z,92.49
2018-12-25T06:37:46.089Z,92.37
2018-12-25T06:40:14.671Z,92.31
2018-12-25T06:42:43.239Z,92.08
2018-12-25T06:45:11.822Z,91.89
2018-12-25T06:47:40.396Z,92.25
2018-12-25T06:50:08.974Z,92.03
2018-12-25T06:52:37.531Z,91.92
2018-12-25T06:55:06.114Z,92.05
2018-12-25T06:57:34.672Z,91.79
2018-12-25T07:00:23.898Z,91.75
2018-12-25T07:02:52.461Z,91.64
2018-12-25T07:05:21.076Z,91.60
2018-12-25T07:07:49.649Z,91.57
2018-12-25T07:10:18.268Z,91.51
2018-12-25T07:12:46.883Z,91.38
2018-12-25T07:15:34.786Z,91.48
2018-12-25T07:18:03.343Z,91.73
2018-12-25T07:20:31.923Z,91.71
2018-12-25T07:23:00.535Z,91.79
2018-12-25T07:25:29.090Z,91.93
2018-12-25T07:27:57.674Z,91.95
2018-12-25T07:30:26.230Z,92.24
2018-12-25T07:32:54.806Z,92.34
2018-12-25T07:35:23.360Z,92.39
2018-12-25T07:37:51.965Z,92.46
2018-12-25T07:40:20.522Z,93.28
2018-12-25T07:42:49.116Z,93.80
2018-12-25T07:45:17.667Z,93.52
2018-12-25T07:47:46.264Z,93.83
2018-12-25T07:50:14.839Z,93.56
2018-12-25T07:52:43.421Z,93.83
2018-12-25T07:55:12.008Z,94.11
2018-12-25T07:57:40.576Z,94.07
2018-12-25T08:00:28.606Z,93.95
2018-12-25T08:02:57.196Z,94.10
2018-12-25T08:05:25.754Z,94.55
2018-12-25T08:07:54.335Z,94.70
2018-12-25T08:10:22.890Z,94.17
2018-12-25T08:12:51.474Z,94.20
2018-12-25T08:15:20.030Z,94.29
2018-12-25T08:17:48.624Z,94.44
2018-12-25T08:20:17.201Z,94.58
2018-12-25T08:22:45.784Z,94.04
2018-12-25T08:25:14.371Z,93.85
2018-12-25T08:28:03.604Z,93.87
2018-12-25T08:30:32.164Z,93.90
2018-12-25T08:33:00.754Z,93.65
2018-12-25T08:35:29.306Z,93.60
2018-12-25T08:37:57.891Z,93.51
2018-12-25T08:40:26.452Z,93.42
2018-12-25T08:42:55.035Z,93.51
2018-12-25T08:45:23.599Z,93.23
2018-12-25T08:47:52.208Z,92.88
2018-12-25T08:50:20.770Z,92.43
2018-12-25T08:52:49.376Z,92.61
2018-12-25T08:55:17.937Z,92.20
2018-12-25T08:58:05.793Z,92.00
2018-12-25T09:00:34.377Z,91.83
2018-12-25T09:03:02.936Z,91.36
2018-12-25T09:05:31.522Z,91.65
2018-12-25T09:08:00.107Z,91.29
2018-12-25T09:10:28.681Z,90.52
2018-12-25T09:12:57.246Z,90.35
2018-12-25T09:15:25.837Z,90.35
2018-12-25T09:17:54.409Z,90.52
2018-12-25T09:20:23.087Z,90.39
2018-12-25T09:22:51.635Z,90.04
2018-12-25T09:25:20.267Z,89.81
2018-12-25T09:27:48.822Z,89.61
2018-12-25T09:30:17.413Z,89.86
2018-12-25T09:32:45.969Z,89.24
2018-12-25T09:35:14.556Z,89.29
2018-12-25T09:37:43.109Z,89.81
2018-12-25T09:40:11.688Z,89.99
2018-12-25T09:42:40.276Z,89.69
2018-12-25T09:45:08.865Z,88.82
2018-12-25T09:47:37.438Z,89.11
2018-12-25T09:50:06.028Z,89.49
2018-12-25T09:52:34.605Z,89.16
2018-12-25T09:55:03.201Z,88.75
2018-12-25T09:57:31.774Z,89.39
2018-12-25T10:00:00.364Z,88.41
2018-12-25T10:02:28.960Z,88.86
2018-12-25T10:04:57.559Z,88.16
2018-12-25T10:07:26.175Z,88.60
2018-12-25T10:09:54.710Z,88.32
2018-12-25T10:12:23.306Z,88.85
2018-12-25T10:14:51.899Z,87.60
2018-12-25T10:17:20.479Z,88.66
2018-12-25T10:19:49.130Z,87.73
2018-12-25T10:22:17.714Z,88.72
2018-12-25T10:24:46.285Z,88.24
2018-12-25T10:27:14.867Z,87.86
2018-12-25T10:29:43.430Z,87.48
2018-12-25T10:32:12.006Z,88.11
2018-12-25T10:34:40.563Z,87.90
2018-12-25T10:37:09.145Z,87.56
2018-12-25T10:39:37.710Z,88.05
2018-12-25T10:42:06.294Z,88.02
2018-12-25T10:44:55.665Z,87.35
2018-12-25T10:47:24.269Z,86.75
2018-12-25T10:49:52.835Z,87.15
2018-12-25T10:52:21.420Z,87.51
2018-12-25T10:54:49.994Z,87.64
2018-12-25T10:57:18.590Z,87.61
2018-12-25T10:59:47.160Z,86.34
2018-12-25T11:02:15.747Z,87.17
2018-12-25T11:04:44.309Z,86.05
2018-12-25T11:07:12.894Z,86.53
2018-12-25T11:09:41.471Z,86.53
2018-12-25T11:12:10.090Z,86.89
2018-12-25T11:14:38.665Z,86.04
2018-12-25T11:17:07.260Z,86.33
2018-12-25T11:19:35.831Z,87.75
2018-12-25T11:22:23.631Z,87.91
2018-12-25T11:24:52.190Z,87.69
2018-12-25T11:27:20.782Z,86.42
2018-12-25T11:29:49.347Z,87.49
2018-12-25T11:32:17.947Z,86.84
2018-12-25T11:34:46.511Z,85.85
2018-12-25T11:37:15.096Z,85.49
2018-12-25T11:39:43.666Z,85.69
2018-12-25T11:42:12.247Z,85.74
2018-12-25T11:44:40.836Z,86.40
2018-12-25T11:47:09.418Z,85.94
2018-12-25T11:49:57.378Z,86.00
2018-12-25T11:54:59.757Z,84.72
2018-12-25T11:57:28.344Z,84.77
2018-12-25T11:59:56.915Z,85.76
2018-12-25T12:02:25.509Z,84.61
2018-12-25T12:04:54.067Z,85.31
2018-12-25T12:07:22.650Z,84.57
2018-12-25T12:09:51.301Z,85.13
2018-12-25T12:12:40.653Z,85.45
2018-12-25T12:15:09.278Z,85.67
2018-12-25T12:17:37.838Z,85.42
2018-12-25T12:20:27.180Z,85.48
2018-12-25T12:22:55.761Z,85.22
2018-12-25T12:25:24.382Z,85.33
2018-12-25T12:27:52.914Z,84.77
2018-12-25T12:30:21.494Z,85.79
2018-12-25T12:32:50.094Z,84.69
2018-12-25T12:35:18.665Z,85.37
2018-12-25T12:37:47.239Z,85.96
2018-12-25T12:40:15.839Z,85.04
2018-12-25T12:42:44.454Z,85.22
2018-12-25T12:45:13.026Z,85.37
2018-12-25T12:47:41.609Z,85.31
2018-12-25T12:50:10.169Z,85.62
2018-12-25T12:52:45.407Z,85.40
2018-12-25T12:55:09.048Z,84.67
2018-12-25T12:57:37.654Z,84.81
2018-12-25T13:00:27.057Z,85.31
2018-12-25T13:02:55.621Z,84.80
2018-12-25T13:05:24.221Z,85.02
2018-12-25T13:07:52.775Z,84.96
2018-12-25T13:10:21.378Z,84.81
2018-12-25T13:12:49.962Z,84.39
2018-12-25T13:15:18.558Z,85.12
2018-12-25T13:17:47.144Z,84.40
2018-12-25T13:20:15.741Z,84.53
2018-12-25T13:22:44.319Z,83.98
2018-12-25T13:25:12.999Z,84.28
2018-12-25T13:27:41.560Z,84.43
2018-12-25T13:30:30.938Z,84.45
2018-12-25T13:32:59.523Z,84.85
2018-12-25T13:35:47.371Z,83.89
2018-12-25T13:38:15.946Z,84.85
2018-12-25T13:40:44.576Z,83.99
2018-12-25T13:43:13.212Z,85.20
2018-12-25T13:45:41.846Z,85.04
2018-12-25T13:48:17.559Z,84.83
2018-12-25T13:50:46.147Z,84.80
2018-12-25T13:53:14.730Z,84.43
2018-12-25T13:55:43.300Z,84.18
2018-12-25T13:58:11.938Z,84.39
2018-12-25T14:00:59.630Z,84.41
2018-12-25T14:03:28.209Z,84.57
2018-12-25T14:05:56.805Z,84.73
2018-12-25T14:08:25.381Z,84.31
2018-12-25T14:10:53.966Z,84.82
2018-12-25T14:13:22.536Z,84.66
2018-12-25T14:15:51.143Z,84.53
2018-12-25T14:18:19.716Z,84.68
2018-12-25T14:20:48.313Z,84.67
2018-12-25T14:23:16.874Z,84.60
2018-12-25T14:25:45.437Z,84.35
2018-12-25T14:28:14.040Z,84.56
2018-12-25T14:30:42.604Z,84.89
2018-12-25T14:33:11.201Z,84.98
2018-12-25T14:35:39.799Z,85.11
2018-12-25T14:38:08.426Z,85.10
2018-12-25T14:40:36.981Z,85.51
2018-12-25T14:43:24.715Z,85.04
2018-12-25T14:45:53.293Z,84.97
2018-12-25T14:48:21.879Z,85.14
2018-12-25T14:50:50.444Z,85.27
2018-12-25T14:53:19.848Z,85.08
2018-12-25T14:55:49.333Z,85.32
2018-12-25T14:58:17.919Z,85.23
2018-12-25T15:00:46.496Z,85.04
2018-12-25T15:03:15.092Z,85.19
2018-12-25T15:05:43.643Z,85.32
2018-12-25T15:08:12.226Z,85.13
2018-12-25T15:10:40.865Z,85.05
2018-12-25T15:13:09.453Z,85.27
2018-12-25T15:15:38.008Z,85.02
2018-12-25T15:18:06.611Z,84.27
2018-12-25T15:20:35.174Z,85.08
2018-12-25T15:23:03.758Z,85.16
2018-12-25T15:25:51.585Z,85.02
2018-12-25T15:28:20.179Z,84.99
2018-12-25T15:30:48.754Z,84.86
2018-12-25T15:33:17.344Z,84.59
2018-12-25T15:35:45.914Z,85.17
2018-12-25T15:38:14.509Z,84.68
2018-12-25T15:40:43.092Z,85.06
2018-12-25T15:43:11.689Z,84.70
2018-12-25T15:45:40.235Z,84.94
2018-12-25T15:48:08.845Z,84.90
2018-12-25T15:50:37.437Z,84.71
2018-12-25T15:53:25.366Z,84.71
2018-12-25T15:55:53.925Z,84.98
2018-12-25T15:58:22.508Z,84.76
2018-12-25T16:00:51.112Z,84.90
2018-12-25T16:03:19.774Z,84.91
2018-12-25T16:05:48.361Z,84.94
2018-12-25T16:08:16.922Z,84.83
2018-12-25T16:10:45.500Z,84.57
2018-12-25T16:13:14.063Z,84.70
2018-12-25T16:15:42.669Z,84.92
2018-12-25T16:18:11.229Z,85.72
2018-12-25T16:20:39.828Z,85.51
2018-12-25T16:23:08.383Z,84.99
2018-12-25T16:25:36.989Z,84.96
2018-12-25T16:28:05.634Z,85.06
2018-12-25T16:30:35.876Z,85.07
2018-12-25T16:33:04.428Z,84.96
2018-12-25T16:35:33.052Z,84.69
2018-12-25T16:38:01.632Z,83.84
2018-12-25T16:40:30.236Z,84.37
2018-12-25T16:42:58.793Z,84.81
2018-12-25T16:45:27.408Z,84.37
2018-12-25T16:47:55.960Z,84.04
2018-12-25T16:50:24.558Z,84.62
2018-12-25T16:53:12.329Z,84.68
2018-12-25T16:55:40.906Z,84.63
2018-12-25T16:58:09.484Z,84.22
2018-12-25T17:00:38.066Z,84.09
2018-12-25T17:03:06.638Z,84.51
2018-12-25T17:05:35.267Z,84.35
2018-12-25T17:08:03.786Z,84.29
2018-12-25T17:10:32.439Z,84.29
2018-12-25T17:13:01.001Z,84.09
2018-12-25T17:15:29.581Z,84.62
2018-12-25T17:17:58.188Z,84.50
2018-12-25T17:20:26.723Z,84.38
2018-12-25T17:22:55.321Z,84.43
2018-12-25T17:25:23.891Z,84.08
2018-12-25T17:27:52.492Z,83.98
2018-12-25T17:30:21.048Z,84.14
2018-12-25T17:32:49.660Z,83.69
2018-12-25T17:35:18.230Z,83.93
2018-12-25T17:37:46.822Z,84.09
2018-12-25T17:40:15.398Z,84.01
2018-12-25T17:42:43.985Z,84.08
2018-12-25T17:45:12.575Z,83.44
2018-12-25T17:47:41.165Z,83.65
2018-12-25T17:50:09.721Z,83.96
2018-12-25T17:52:38.319Z,83.90
2018-12-25T17:55:26.254Z,83.80
2018-12-25T17:58:13.935Z,83.51
2018-12-25T18:00:42.518Z,83.90
2018-12-25T18:03:11.097Z,84.02
2018-12-25T18:05:39.645Z,83.85
2018-12-25T18:08:08.243Z,83.60
2018-12-25T18:10:36.815Z,84.03
2018-12-25T18:13:05.537Z,83.84
2018-12-25T18:15:53.303Z,83.63
2018-12-25T18:18:21.906Z,83.65
2018-12-25T18:20:50.491Z,83.51
2018-12-25T18:23:19.093Z,83.75
2018-12-25T18:25:47.658Z,83.68
2018-12-25T18:28:16.258Z,83.51
2018-12-25T18:30:44.824Z,83.62
2018-12-25T18:33:13.424Z,83.76
2018-12-25T18:35:41.995Z,83.56
2018-12-25T18:38:11.589Z,83.39
2018-12-25T18:40:40.903Z,83.60
2018-12-25T18:43:09.505Z,83.62
2018-12-25T18:45:38.123Z,83.74
2018-12-25T18:48:06.668Z,83.77
2018-12-25T18:50:35.257Z,83.13
2018-12-25T18:53:03.821Z,83.61
2018-12-25T18:55:32.429Z,83.33
2018-12-25T18:58:00.996Z,83.46
2018-12-25T19:00:29.593Z,83.35
2018-12-25T19:02:58.157Z,83.19
2018-12-25T19:05:26.763Z,83.29
2018-12-25T19:07:55.367Z,83.11
2018-12-25T19:10:23.987Z,82.90
2018-12-25T19:12:52.547Z,82.56
2018-12-25T19:16:01.092Z,83.19
2018-12-25T19:18:29.642Z,83.04
2018-12-25T19:20:58.208Z,83.15
2018-12-25T19:23:26.768Z,83.34
2018-12-25T19:25:55.366Z,82.90
2018-12-25T19:28:23.934Z,82.90
2018-12-25T19:30:52.543Z,82.67
2018-12-25T19:33:21.155Z,82.57
2018-12-25T19:35:49.735Z,82.94
2018-12-25T19:38:39.085Z,82.80
2018-12-25T19:41:26.806Z,82.87
2018-12-25T19:43:55.377Z,83.00
2018-12-25T19:46:23.969Z,83.00
2018-12-25T19:48:52.548Z,83.00
2018-12-25T19:51:21.185Z,82.99
2018-12-25T19:53:51.470Z,82.35
2018-12-25T19:56:20.054Z,82.75
2018-12-25T19:58:48.620Z,82.40
2018-12-25T20:01:17.230Z,82.88
2018-12-25T20:04:06.578Z,82.21
2018-12-25T20:06:55.984Z,82.16
2018-12-25T20:09:45.394Z,82.02
2018-12-25T20:12:52.624Z,82.37
2018-12-25T20:19:13.922Z,83.03
2018-12-25T20:22:21.130Z,82.47
2018-12-25T20:25:10.481Z,82.95
2018-12-25T20:28:17.699Z,82.75
2018-12-25T20:31:24.847Z,82.68
2018-12-25T20:34:32.102Z,82.80
2018-12-25T20:40:47.642Z,82.78
2018-12-25T20:43:54.847Z,82.76
2018-12-25T20:46:44.267Z,82.87
2018-12-25T20:49:51.475Z,82.59
2018-12-25T20:52:58.647Z,82.63
2018-12-25T20:56:05.864Z,81.82
2018-12-25T20:59:13.055Z,82.07
2018-12-25T21:02:02.495Z,82.17
2018-12-25T21:05:09.670Z,82.48
2018-12-25T21:11:17.888Z,82.28
2018-12-25T21:14:29.103Z,82.49
2018-12-25T21:20:50.169Z,82.05
2018-12-25T21:23:57.382Z,82.07
2018-12-25T21:27:04.595Z,81.33
2018-12-25T21:29:33.259Z,81.59
2018-12-25T21:35:29.370Z,81.20
2018-12-25T21:38:18.741Z,81.27
2018-12-25T21:41:08.138Z,81.80
2018-12-25T21:43:57.483Z,81.72
2018-12-25T21:46:45.256Z,81.85
2018-12-25T21:49:34.629Z,81.71
2018-12-25T21:52:24.014Z,81.98
2018-12-25T21:55:18.658Z,81.01
2018-12-25T21:58:04.531Z,81.94
2018-12-25T22:00:35.266Z,81.55
2018-12-25T22:03:03.611Z,82.03
2018-12-25T22:05:52.828Z,81.81
2018-12-25T22:08:21.391Z,82.10
2018-12-25T22:11:09.247Z,81.79
2018-12-25T22:13:37.796Z,81.26
2018-12-25T22:16:06.422Z,81.90
2018-12-25T22:18:34.952Z,80.75
2018-12-25T22:21:03.560Z,81.76
2018-12-25T22:23:52.462Z,81.84
2018-12-25T22:26:21.659Z,81.00
2018-12-25T22:28:50.246Z,81.31
2018-12-25T22:31:18.826Z,81.87
2018-12-25T22:33:47.388Z,81.25
2018-12-25T22:36:15.983Z,81.66
2018-12-25T22:38:44.563Z,81.33
2018-12-25T22:41:13.114Z,81.73
2018-12-25T22:43:41.711Z,81.49
2018-12-25T22:46:10.284Z,81.93
2018-12-25T22:48:38.862Z,81.61
2018-12-25T22:51:07.436Z,81.71
2018-12-25T22:53:36.060Z,82.12
2018-12-25T22:56:04.626Z,81.94
2018-12-25T22:58:33.214Z,82.16
2018-12-25T23:01:22.579Z,82.20
2018-12-25T23:03:51.134Z,81.81
2018-12-25T23:06:19.884Z,82.22
2018-12-25T23:08:48.459Z,81.96
2018-12-25T23:11:17.019Z,82.13
2018-12-25T23:13:45.625Z,82.29
2018-12-25T23:16:15.952Z,81.98
2018-12-25T23:19:03.654Z,82.14
2018-12-25T23:21:32.212Z,82.37
2018-12-25T23:24:00.849Z,82.10
2018-12-25T23:26:29.384Z,82.38
2018-12-25T23:28:58.077Z,82.24
2018-12-25T23:31:26.621Z,82.60
2018-12-25T23:33:55.207Z,82.40
2018-12-25T23:36:23.789Z,82.25
2018-12-25T23:38:52.412Z,82.24
2018-12-25T23:41:20.939Z,82.28
2018-12-25T23:43:49.522Z,82.56
2018-12-25T23:46:18.082Z,82.47
2018-12-25T23:48:46.659Z,82.56
2018-12-25T23:51:15.230Z,82.55
2018-12-25T23:53:43.816Z,82.33
2018-12-25T23:56:12.390Z,82.04
2018-12-25T23:58:40.989Z,82.68
